Atikokan, Canada
Current Conditions -  °F | °C
As of 11:11 AM on Sunday 23 Nov 2014 (Local Time) from KCDD Reporting Station
Haze Haze  
Wind Chill: 36°   Ceiling: 500
Heat Index: 36°   Visibility: 5mi
Dew Point: 34°   Wind: 0mph
Humidity: 93%   Direction: NA
Pressure: 29.43"   Gusts: NA
Location:  48.76°N, 91.59°W
Report Text: KCDD 231711Z AUTO 00000KT 5SM BR OVC005 02/01 A2943 RMK AO2
Loading
Personal Weather Stations






























Interactive Weather Map New forecast layout! Learn more

10-Day Weather Forecast

Advertisements
Track Severe Weather on mobile